CAL12 RCTP-KJFK
Flight info
| Callsign | CAL12 |
|---|---|
| Flight time | N/A |
| Altitude | 29000 |
| Route | MOLKA1C MOLKA M750 MUKEP Y891 OVSUN/N0509F300 Y893 IGMIS/N0510F290 Y57 POROT/N0505F310 Y809 IDLAN Y812 ADNAP OTR5 KALNA DCT 44N160E 49N170E/N0490F330 DCT AMOND DCT ALDOZ DCT ALUFF DCT SPY DCT DLG DCT HOM J617 JOH/N0479F350 DCT JAGIT DCT 61N130W 60N120W 5730N11000W 53N100W DCT GABOV/N0492F370 DCT TVC DCT TWIGS DCT JHW J106 MAGIO Q476 WLKES PUCKY1 |
| Aircraft | B77W/H-SDE1E2E3FGHIJ2J3J4J5M1RWXY/LB1D1 |
Departure
| Time | 2026-04-30 18:29 |
|---|---|
| Airport | Taiwan Taoyuan International Airport (RCTP) |
Arrival
| Time | N/A |
|---|---|
| Airport | John F. Kennedy International Airport (KJFK) |
| Time | Latitude | Longitude | Altitude | Speed | Heading |
|---|---|---|---|---|---|
| 2026-04-30 17:44 | 25.08135 | 121.23327 | 121 ft | 0 kts | 140° |
| 2026-04-30 18:13 | 25.08148 | 121.23315 | 121 ft | 2 kts | 140° |
| 2026-04-30 18:13 | 25.08179 | 121.23286 | 121 ft | 2 kts | 140° |
| 2026-04-30 18:14 | 25.08200 | 121.23257 | 120 ft | 2 kts | 97° |
| 2026-04-30 18:15 | 25.08183 | 121.23212 | 120 ft | 2 kts | 45° |
| 2026-04-30 18:15 | 25.08153 | 121.23175 | 120 ft | 2 kts | 49° |
| 2026-04-30 18:16 | 25.08145 | 121.23165 | 120 ft | 0 kts | 49° |
| 2026-04-30 18:19 | 25.08146 | 121.23166 | 120 ft | 0 kts | 46° |
| 2026-04-30 18:19 | 25.08153 | 121.23168 | 120 ft | 1 kts | 2° |
| 2026-04-30 18:19 | 25.08176 | 121.23148 | 120 ft | 7 kts | 310° |
| 2026-04-30 18:19 | 25.08201 | 121.23083 | 120 ft | 10 kts | 267° |
| 2026-04-30 18:20 | 25.08160 | 121.23013 | 120 ft | 12 kts | 227° |
| 2026-04-30 18:20 | 25.08100 | 121.22939 | 120 ft | 13 kts | 229° |
| 2026-04-30 18:20 | 25.08033 | 121.22852 | 120 ft | 16 kts | 230° |
| 2026-04-30 18:20 | 25.07954 | 121.22751 | 120 ft | 18 kts | 228° |
| 2026-04-30 18:21 | 25.07868 | 121.22644 | 120 ft | 17 kts | 229° |
| 2026-04-30 18:21 | 25.07789 | 121.22543 | 120 ft | 16 kts | 229° |
| 2026-04-30 18:21 | 25.07715 | 121.22448 | 120 ft | 15 kts | 229° |
| 2026-04-30 18:21 | 25.07645 | 121.22360 | 120 ft | 14 kts | 229° |
| 2026-04-30 18:22 | 25.07581 | 121.22280 | 120 ft | 13 kts | 229° |
| 2026-04-30 18:22 | 25.07457 | 121.22123 | 120 ft | 14 kts | 229° |
| 2026-04-30 18:22 | 25.07388 | 121.22034 | 120 ft | 15 kts | 229° |
| 2026-04-30 18:23 | 25.07327 | 121.21973 | 120 ft | 9 kts | 191° |
| 2026-04-30 18:23 | 25.07267 | 121.22012 | 120 ft | 11 kts | 137° |
| 2026-04-30 18:23 | 25.07206 | 121.22073 | 120 ft | 12 kts | 137° |
| 2026-04-30 18:23 | 25.07137 | 121.22143 | 120 ft | 13 kts | 139° |
| 2026-04-30 18:24 | 25.06980 | 121.22295 | 120 ft | 15 kts | 138° |
| 2026-04-30 18:24 | 25.06894 | 121.22377 | 120 ft | 16 kts | 139° |
| 2026-04-30 18:24 | 25.06804 | 121.22462 | 120 ft | 17 kts | 138° |
| 2026-04-30 18:25 | 25.06711 | 121.22555 | 120 ft | 18 kts | 137° |
| 2026-04-30 18:25 | 25.06561 | 121.22635 | 120 ft | 10 kts | 211° |
| 2026-04-30 18:25 | 25.06506 | 121.22572 | 120 ft | 12 kts | 229° |
| 2026-04-30 18:26 | 25.06368 | 121.22395 | 120 ft | 16 kts | 229° |
| 2026-04-30 18:26 | 25.06298 | 121.22305 | 120 ft | 15 kts | 229° |
| 2026-04-30 18:26 | 25.06221 | 121.22244 | 120 ft | 12 kts | 181° |
| 2026-04-30 18:27 | 25.06107 | 121.22347 | 120 ft | 9 kts | 109° |
| 2026-04-30 18:27 | 25.06126 | 121.22408 | 120 ft | 8 kts | 47° |
| 2026-04-30 18:28 | 25.06555 | 121.22948 | 121 ft | 96 kts | 49° |
| 2026-04-30 18:28 | 25.07104 | 121.23645 | 121 ft | 141 kts | 49° |
| 2026-04-30 18:28 | 25.08686 | 121.25673 | 376 ft | 190 kts | 50° |
| 2026-04-30 18:29 | 25.09559 | 121.26805 | 855 ft | 195 kts | 50° |
| 2026-04-30 18:29 | 25.12276 | 121.30294 | 2055 ft | 203 kts | 45° |
| 2026-04-30 18:30 | 25.14003 | 121.32237 | 2476 ft | 221 kts | 46° |
| 2026-04-30 18:30 | 25.16598 | 121.35220 | 3265 ft | 239 kts | 46° |
| 2026-04-30 18:31 | 25.17784 | 121.36584 | 3579 ft | 248 kts | 46° |
| 2026-04-30 18:31 | 25.20255 | 121.39429 | 4361 ft | 259 kts | 46° |
| 2026-04-30 18:32 | 25.22837 | 121.42405 | 5079 ft | 272 kts | 45° |
| 2026-04-30 18:32 | 25.24164 | 121.43933 | 5444 ft | 278 kts | 45° |
| 2026-04-30 18:32 | 25.26936 | 121.47131 | 6247 ft | 286 kts | 45° |
| 2026-04-30 18:33 | 25.28334 | 121.48753 | 6613 ft | 291 kts | 48° |
| 2026-04-30 18:33 | 25.29561 | 121.52953 | 7354 ft | 297 kts | 96° |
| 2026-04-30 18:33 | 25.29507 | 121.55308 | 7759 ft | 300 kts | 85° |
| 2026-04-30 18:34 | 25.29755 | 121.57606 | 8201 ft | 301 kts | 79° |
| 2026-04-30 18:34 | 25.30584 | 121.62197 | 9004 ft | 306 kts | 77° |
| 2026-04-30 18:34 | 25.31043 | 121.64542 | 9371 ft | 309 kts | 77° |
| 2026-04-30 18:35 | 25.31505 | 121.66908 | 9777 ft | 311 kts | 77° |
| 2026-04-30 18:35 | 25.31971 | 121.69292 | 10116 ft | 315 kts | 77° |
| 2026-04-30 18:35 | 25.32443 | 121.71712 | 10394 ft | 322 kts | 77° |
| 2026-04-30 18:36 | 25.33437 | 121.76817 | 10655 ft | 350 kts | 77° |
| 2026-04-30 18:36 | 25.33968 | 121.79546 | 10717 ft | 366 kts | 77° |
| 2026-04-30 18:36 | 25.35102 | 121.85388 | 10895 ft | 397 kts | 77° |
| 2026-04-30 18:37 | 25.35700 | 121.88470 | 11045 ft | 410 kts | 77° |
| 2026-04-30 18:37 | 25.36310 | 121.91625 | 11354 ft | 417 kts | 77° |
| 2026-04-30 18:37 | 25.36923 | 121.94798 | 11831 ft | 420 kts | 77° |
| 2026-04-30 18:37 | 25.37539 | 121.97985 | 12316 ft | 422 kts | 77° |
| 2026-04-30 18:38 | 25.38164 | 122.01228 | 12716 ft | 428 kts | 77° |
| 2026-04-30 18:38 | 25.38796 | 122.04511 | 13144 ft | 432 kts | 77° |
| 2026-04-30 18:38 | 25.39425 | 122.07780 | 13595 ft | 435 kts | 77° |
| 2026-04-30 18:38 | 25.40066 | 122.11118 | 14056 ft | 439 kts | 77° |
| 2026-04-30 18:39 | 25.40705 | 122.14449 | 14466 ft | 444 kts | 77° |
| 2026-04-30 18:39 | 25.41352 | 122.17828 | 14963 ft | 446 kts | 77° |
| 2026-04-30 18:39 | 25.42087 | 122.21191 | 15403 ft | 448 kts | 70° |
| 2026-04-30 18:39 | 25.43150 | 122.24500 | 15835 ft | 451 kts | 68° |
| 2026-04-30 18:40 | 25.44252 | 122.27764 | 16258 ft | 455 kts | 68° |
| 2026-04-30 18:40 | 25.45375 | 122.31089 | 16677 ft | 458 kts | 68° |
| 2026-04-30 18:40 | 25.46499 | 122.34423 | 17079 ft | 462 kts | 68° |
| 2026-04-30 18:40 | 25.47640 | 122.37814 | 17494 ft | 465 kts | 67° |
| 2026-04-30 18:41 | 25.48784 | 122.41219 | 17877 ft | 469 kts | 67° |
| 2026-04-30 18:41 | 25.49930 | 122.44634 | 18295 ft | 472 kts | 67° |
| 2026-04-30 18:41 | 25.51088 | 122.48090 | 18725 ft | 474 kts | 67° |
| 2026-04-30 18:41 | 25.52239 | 122.51530 | 19106 ft | 478 kts | 67° |
| 2026-04-30 18:42 | 25.53411 | 122.55035 | 19517 ft | 480 kts | 67° |
| 2026-04-30 18:42 | 25.55775 | 122.62115 | 20283 ft | 486 kts | 67° |
| 2026-04-30 18:42 | 25.56945 | 122.65624 | 20623 ft | 490 kts | 67° |
| 2026-04-30 18:45 | 25.69247 | 123.02424 | 23983 ft | 517 kts | 67° |
| 2026-04-30 18:45 | 25.70525 | 123.06222 | 24322 ft | 519 kts | 67° |
| 2026-04-30 18:45 | 25.71796 | 123.10003 | 24622 ft | 522 kts | 67° |
| 2026-04-30 18:46 | 25.73073 | 123.13804 | 24900 ft | 526 kts | 67° |
| 2026-04-30 18:46 | 25.74359 | 123.17636 | 25222 ft | 528 kts | 67° |
| 2026-04-30 18:46 | 25.75661 | 123.21522 | 25565 ft | 530 kts | 67° |
| 2026-04-30 18:46 | 25.76971 | 123.25436 | 25870 ft | 533 kts | 67° |
| 2026-04-30 18:47 | 25.78282 | 123.29358 | 26166 ft | 537 kts | 67° |
| 2026-04-30 18:47 | 25.79603 | 123.33312 | 26498 ft | 539 kts | 67° |
| 2026-04-30 18:47 | 25.80914 | 123.37241 | 26809 ft | 541 kts | 67° |
| 2026-04-30 18:47 | 25.82243 | 123.41229 | 27120 ft | 544 kts | 67° |
| 2026-04-30 18:48 | 25.83569 | 123.45209 | 27413 ft | 547 kts | 67° |
| 2026-04-30 18:48 | 25.85002 | 123.49173 | 27708 ft | 547 kts | 62° |
| 2026-04-30 18:48 | 25.86850 | 123.52905 | 27973 ft | 546 kts | 54° |
| 2026-04-30 18:48 | 25.89110 | 123.56338 | 28237 ft | 544 kts | 46° |
| 2026-04-30 18:49 | 25.91724 | 123.59387 | 28568 ft | 540 kts | 38° |
| 2026-04-30 18:49 | 25.94665 | 123.62038 | 28978 ft | 534 kts | 30° |
| 2026-04-30 18:49 | 25.97831 | 123.64245 | 29054 ft | 532 kts | 22° |
| 2026-04-30 18:50 | 26.04508 | 123.67800 | 29058 ft | 526 kts | 19° |
| 2026-04-30 18:50 | 26.11272 | 123.71308 | 29059 ft | 525 kts | 19° |
| 2026-04-30 18:51 | 26.18041 | 123.74835 | 29060 ft | 526 kts | 19° |
| 2026-04-30 18:51 | 26.24725 | 123.78332 | 29061 ft | 526 kts | 19° |
| 2026-04-30 18:52 | 26.31407 | 123.81838 | 29063 ft | 524 kts | 19° |
| 2026-04-30 18:52 | 26.38030 | 123.85317 | 29060 ft | 526 kts | 19° |